sensor_id;sensor_type;location;lat;lon;timestamp;P1;durP1;ratioP1;P2;durP2;ratioP2
15595;SDS011;7898;48.658;9.068;2022-08-19T00:01:39;18.30;;;15.55;;
15595;SDS011;7898;48.658;9.068;2022-08-19T00:04:10;19.83;;;15.95;;
15595;SDS011;7898;48.658;9.068;2022-08-19T00:06:39;20.40;;;15.55;;
15595;SDS011;7898;48.658;9.068;2022-08-19T00:09:08;20.52;;;16.23;;
15595;SDS011;7898;48.658;9.068;2022-08-19T00:11:37;16.83;;;14.93;;
15595;SDS011;7898;48.658;9.068;2022-08-19T00:14:05;19.83;;;15.13;;
15595;SDS011;7898;48.658;9.068;2022-08-19T00:16:37;19.08;;;16.35;;
15595;SDS011;7898;48.658;9.068;2022-08-19T00:19:05;19.05;;;16.70;;
15595;SDS011;7898;48.658;9.068;2022-08-19T00:21:32;19.35;;;16.00;;
15595;SDS011;7898;48.658;9.068;2022-08-19T00:24:04;18.35;;;16.30;;
15595;SDS011;7898;48.658;9.068;2022-08-19T00:26:33;19.58;;;15.55;;
15595;SDS011;7898;48.658;9.068;2022-08-19T00:29:00;21.77;;;16.42;;
15595;SDS011;7898;48.658;9.068;2022-08-19T00:31:28;19.15;;;15.38;;
15595;SDS011;7898;48.658;9.068;2022-08-19T00:33:57;19.15;;;15.95;;
15595;SDS011;7898;48.658;9.068;2022-08-19T00:36:24;22.42;;;16.73;;
15595;SDS011;7898;48.658;9.068;2022-08-19T00:38:51;21.35;;;16.73;;
15595;SDS011;7898;48.658;9.068;2022-08-19T00:41:19;20.08;;;16.30;;
15595;SDS011;7898;48.658;9.068;2022-08-19T00:43:56;18.70;;;16.02;;
15595;SDS011;7898;48.658;9.068;2022-08-19T00:46:25;22.38;;;17.02;;
15595;SDS011;7898;48.658;9.068;2022-08-19T00:48:52;22.80;;;17.80;;
15595;SDS011;7898;48.658;9.068;2022-08-19T00:51:21;21.77;;;17.98;;
15595;SDS011;7898;48.658;9.068;2022-08-19T00:53:48;25.42;;;18.67;;
15595;SDS011;7898;48.658;9.068;2022-08-19T00:56:15;25.80;;;19.08;;
15595;SDS011;7898;48.658;9.068;2022-08-19T00:58:43;24.52;;;18.83;;
15595;SDS011;7898;48.658;9.068;2022-08-19T01:01:10;26.33;;;18.27;;
15595;SDS011;7898;48.658;9.068;2022-08-19T01:03:39;23.60;;;19.25;;
15595;SDS011;7898;48.658;9.068;2022-08-19T01:06:06;23.45;;;18.83;;
15595;SDS011;7898;48.658;9.068;2022-08-19T01:08:34;23.80;;;18.33;;
15595;SDS011;7898;48.658;9.068;2022-08-19T01:11:01;24.17;;;19.05;;
15595;SDS011;7898;48.658;9.068;2022-08-19T01:13:30;23.42;;;18.63;;
15595;SDS011;7898;48.658;9.068;2022-08-19T01:16:00;24.38;;;19.88;;
15595;SDS011;7898;48.658;9.068;2022-08-19T01:18:29;24.90;;;18.40;;
15595;SDS011;7898;48.658;9.068;2022-08-19T01:20:58;25.15;;;19.10;;
15595;SDS011;7898;48.658;9.068;2022-08-19T01:23:32;24.30;;;19.25;;
15595;SDS011;7898;48.658;9.068;2022-08-19T01:26:09;26.02;;;19.25;;
15595;SDS011;7898;48.658;9.068;2022-08-19T01:28:37;24.27;;;20.08;;
15595;SDS011;7898;48.658;9.068;2022-08-19T01:31:05;27.23;;;20.60;;
15595;SDS011;7898;48.658;9.068;2022-08-19T01:33:36;23.40;;;19.13;;
15595;SDS011;7898;48.658;9.068;2022-08-19T01:36:05;22.67;;;19.08;;
15595;SDS011;7898;48.658;9.068;2022-08-19T01:38:35;24.40;;;19.15;;
15595;SDS011;7898;48.658;9.068;2022-08-19T01:41:04;27.98;;;20.00;;
15595;SDS011;7898;48.658;9.068;2022-08-19T01:43:31;24.60;;;20.17;;
15595;SDS011;7898;48.658;9.068;2022-08-19T01:45:58;24.30;;;18.40;;
15595;SDS011;7898;48.658;9.068;2022-08-19T01:48:25;25.65;;;19.42;;
15595;SDS011;7898;48.658;9.068;2022-08-19T01:50:54;25.67;;;19.75;;
15595;SDS011;7898;48.658;9.068;2022-08-19T01:53:21;27.92;;;20.15;;
15595;SDS011;7898;48.658;9.068;2022-08-19T01:55:49;25.33;;;20.05;;
15595;SDS011;7898;48.658;9.068;2022-08-19T01:58:17;25.27;;;20.05;;
15595;SDS011;7898;48.658;9.068;2022-08-19T02:00:47;22.40;;;19.30;;
15595;SDS011;7898;48.658;9.068;2022-08-19T02:03:14;24.73;;;19.92;;
15595;SDS011;7898;48.658;9.068;2022-08-19T02:05:42;26.75;;;20.35;;
15595;SDS011;7898;48.658;9.068;2022-08-19T02:08:10;29.88;;;21.90;;
15595;SDS011;7898;48.658;9.068;2022-08-19T02:10:38;24.10;;;19.70;;
15595;SDS011;7898;48.658;9.068;2022-08-19T02:13:08;26.58;;;21.30;;
15595;SDS011;7898;48.658;9.068;2022-08-19T02:15:34;28.05;;;21.48;;
15595;SDS011;7898;48.658;9.068;2022-08-19T02:18:02;28.88;;;20.63;;
15595;SDS011;7898;48.658;9.068;2022-08-19T02:20:30;27.45;;;20.90;;
15595;SDS011;7898;48.658;9.068;2022-08-19T02:22:57;25.67;;;20.95;;
15595;SDS011;7898;48.658;9.068;2022-08-19T02:25:24;27.90;;;21.05;;
15595;SDS011;7898;48.658;9.068;2022-08-19T02:27:50;27.17;;;20.80;;
15595;SDS011;7898;48.658;9.068;2022-08-19T02:30:20;26.02;;;20.77;;
15595;SDS011;7898;48.658;9.068;2022-08-19T02:32:48;30.02;;;21.52;;
15595;SDS011;7898;48.658;9.068;2022-08-19T02:35:16;26.33;;;21.02;;
15595;SDS011;7898;48.658;9.068;2022-08-19T02:37:43;25.33;;;20.63;;
15595;SDS011;7898;48.658;9.068;2022-08-19T02:40:28;26.35;;;20.23;;
15595;SDS011;7898;48.658;9.068;2022-08-19T02:42:58;31.48;;;21.20;;
15595;SDS011;7898;48.658;9.068;2022-08-19T02:45:27;27.48;;;21.77;;
15595;SDS011;7898;48.658;9.068;2022-08-19T02:47:57;31.65;;;21.52;;
15595;SDS011;7898;48.658;9.068;2022-08-19T02:50:24;27.35;;;22.10;;
15595;SDS011;7898;48.658;9.068;2022-08-19T02:52:51;27.52;;;21.88;;
15595;SDS011;7898;48.658;9.068;2022-08-19T02:55:18;25.08;;;21.23;;
15595;SDS011;7898;48.658;9.068;2022-08-19T02:57:45;30.50;;;21.75;;
15595;SDS011;7898;48.658;9.068;2022-08-19T03:00:13;27.88;;;22.13;;
15595;SDS011;7898;48.658;9.068;2022-08-19T03:02:41;26.05;;;21.42;;
15595;SDS011;7898;48.658;9.068;2022-08-19T03:05:08;27.90;;;22.15;;
15595;SDS011;7898;48.658;9.068;2022-08-19T03:07:36;33.67;;;22.92;;
15595;SDS011;7898;48.658;9.068;2022-08-19T03:10:04;29.58;;;23.05;;
15595;SDS011;7898;48.658;9.068;2022-08-19T03:12:34;29.98;;;22.20;;
15595;SDS011;7898;48.658;9.068;2022-08-19T03:15:02;32.08;;;24.00;;
15595;SDS011;7898;48.658;9.068;2022-08-19T03:17:30;28.42;;;23.10;;
15595;SDS011;7898;48.658;9.068;2022-08-19T03:19:58;33.42;;;22.65;;
15595;SDS011;7898;48.658;9.068;2022-08-19T03:22:25;30.35;;;22.67;;
15595;SDS011;7898;48.658;9.068;2022-08-19T03:24:52;31.85;;;23.67;;
15595;SDS011;7898;48.658;9.068;2022-08-19T03:27:19;28.48;;;22.27;;
15595;SDS011;7898;48.658;9.068;2022-08-19T03:29:46;33.47;;;24.25;;
15595;SDS011;7898;48.658;9.068;2022-08-19T03:32:13;31.17;;;23.92;;
15595;SDS011;7898;48.658;9.068;2022-08-19T03:34:40;28.67;;;23.35;;
15595;SDS011;7898;48.658;9.068;2022-08-19T03:37:09;30.33;;;23.67;;
15595;SDS011;7898;48.658;9.068;2022-08-19T03:39:38;30.58;;;24.23;;
15595;SDS011;7898;48.658;9.068;2022-08-19T03:42:07;30.52;;;24.40;;
15595;SDS011;7898;48.658;9.068;2022-08-19T03:44:35;32.65;;;24.85;;
15595;SDS011;7898;48.658;9.068;2022-08-19T03:47:03;34.65;;;25.17;;
15595;SDS011;7898;48.658;9.068;2022-08-19T03:49:32;35.75;;;26.08;;
15595;SDS011;7898;48.658;9.068;2022-08-19T03:52:00;34.88;;;24.65;;
15595;SDS011;7898;48.658;9.068;2022-08-19T03:54:31;33.05;;;25.25;;
15595;SDS011;7898;48.658;9.068;2022-08-19T03:56:58;34.53;;;25.92;;
15595;SDS011;7898;48.658;9.068;2022-08-19T03:59:26;33.60;;;26.33;;
15595;SDS011;7898;48.658;9.068;2022-08-19T04:01:56;33.42;;;25.58;;
15595;SDS011;7898;48.658;9.068;2022-08-19T04:04:24;33.88;;;25.60;;
15595;SDS011;7898;48.658;9.068;2022-08-19T04:06:52;36.30;;;24.83;;
15595;SDS011;7898;48.658;9.068;2022-08-19T04:09:19;32.88;;;24.58;;
15595;SDS011;7898;48.658;9.068;2022-08-19T04:11:48;34.78;;;25.50;;
15595;SDS011;7898;48.658;9.068;2022-08-19T04:14:19;32.10;;;25.52;;
15595;SDS011;7898;48.658;9.068;2022-08-19T04:16:48;32.70;;;26.23;;
15595;SDS011;7898;48.658;9.068;2022-08-19T04:19:15;34.92;;;26.08;;
15595;SDS011;7898;48.658;9.068;2022-08-19T04:21:43;40.20;;;26.42;;
15595;SDS011;7898;48.658;9.068;2022-08-19T04:24:12;38.58;;;27.33;;
15595;SDS011;7898;48.658;9.068;2022-08-19T04:26:39;33.03;;;26.17;;
15595;SDS011;7898;48.658;9.068;2022-08-19T04:29:09;36.65;;;27.50;;
15595;SDS011;7898;48.658;9.068;2022-08-19T04:31:38;36.88;;;26.65;;
15595;SDS011;7898;48.658;9.068;2022-08-19T04:34:06;38.25;;;27.50;;
15595;SDS011;7898;48.658;9.068;2022-08-19T04:36:36;35.85;;;27.02;;
15595;SDS011;7898;48.658;9.068;2022-08-19T04:39:05;32.55;;;26.70;;
15595;SDS011;7898;48.658;9.068;2022-08-19T04:41:33;33.75;;;26.27;;
15595;SDS011;7898;48.658;9.068;2022-08-19T04:44:19;35.83;;;25.73;;
15595;SDS011;7898;48.658;9.068;2022-08-19T04:46:46;30.60;;;26.15;;
15595;SDS011;7898;48.658;9.068;2022-08-19T04:49:14;36.63;;;27.88;;
15595;SDS011;7898;48.658;9.068;2022-08-19T04:51:43;34.95;;;27.85;;
15595;SDS011;7898;48.658;9.068;2022-08-19T04:54:12;32.92;;;26.98;;
15595;SDS011;7898;48.658;9.068;2022-08-19T04:56:40;34.22;;;27.35;;
15595;SDS011;7898;48.658;9.068;2022-08-19T04:59:07;34.92;;;26.15;;
15595;SDS011;7898;48.658;9.068;2022-08-19T05:01:36;35.53;;;26.77;;
15595;SDS011;7898;48.658;9.068;2022-08-19T05:04:04;34.53;;;27.10;;
15595;SDS011;7898;48.658;9.068;2022-08-19T05:06:33;36.15;;;26.98;;
15595;SDS011;7898;48.658;9.068;2022-08-19T05:09:01;37.45;;;28.17;;
15595;SDS011;7898;48.658;9.068;2022-08-19T05:11:30;36.10;;;27.05;;
15595;SDS011;7898;48.658;9.068;2022-08-19T05:13:59;38.90;;;27.90;;
15595;SDS011;7898;48.658;9.068;2022-08-19T05:16:26;35.58;;;27.15;;
15595;SDS011;7898;48.658;9.068;2022-08-19T05:18:55;34.90;;;27.55;;
15595;SDS011;7898;48.658;9.068;2022-08-19T05:21:40;33.95;;;26.80;;
15595;SDS011;7898;48.658;9.068;2022-08-19T05:24:25;36.00;;;28.10;;
15595;SDS011;7898;48.658;9.068;2022-08-19T05:26:52;34.53;;;26.52;;
15595;SDS011;7898;48.658;9.068;2022-08-19T05:29:21;34.47;;;28.40;;
15595;SDS011;7898;48.658;9.068;2022-08-19T05:31:51;37.00;;;29.08;;
15595;SDS011;7898;48.658;9.068;2022-08-19T05:34:21;37.47;;;28.17;;
15595;SDS011;7898;48.658;9.068;2022-08-19T05:36:50;32.85;;;26.90;;
15595;SDS011;7898;48.658;9.068;2022-08-19T05:39:22;39.80;;;28.90;;
15595;SDS011;7898;48.658;9.068;2022-08-19T05:41:51;35.55;;;27.27;;
15595;SDS011;7898;48.658;9.068;2022-08-19T05:44:19;34.13;;;27.45;;
15595;SDS011;7898;48.658;9.068;2022-08-19T05:46:47;33.53;;;26.20;;
15595;SDS011;7898;48.658;9.068;2022-08-19T05:49:17;34.30;;;27.13;;
15595;SDS011;7898;48.658;9.068;2022-08-19T05:51:48;34.53;;;26.45;;
15595;SDS011;7898;48.658;9.068;2022-08-19T05:54:15;37.25;;;27.98;;
15595;SDS011;7898;48.658;9.068;2022-08-19T05:56:43;31.83;;;26.13;;
15595;SDS011;7898;48.658;9.068;2022-08-19T05:59:12;35.47;;;26.70;;
15595;SDS011;7898;48.658;9.068;2022-08-19T06:01:42;31.88;;;26.73;;
15595;SDS011;7898;48.658;9.068;2022-08-19T06:04:10;31.33;;;26.00;;
15595;SDS011;7898;48.658;9.068;2022-08-19T06:06:40;35.38;;;26.38;;
15595;SDS011;7898;48.658;9.068;2022-08-19T06:09:07;35.17;;;26.55;;
15595;SDS011;7898;48.658;9.068;2022-08-19T06:11:36;34.17;;;26.10;;
15595;SDS011;7898;48.658;9.068;2022-08-19T06:14:08;35.92;;;27.08;;
15595;SDS011;7898;48.658;9.068;2022-08-19T06:16:37;33.10;;;24.40;;
15595;SDS011;7898;48.658;9.068;2022-08-19T06:19:07;35.53;;;27.00;;
15595;SDS011;7898;48.658;9.068;2022-08-19T06:21:35;37.13;;;26.17;;
15595;SDS011;7898;48.658;9.068;2022-08-19T06:24:05;36.30;;;28.40;;
15595;SDS011;7898;48.658;9.068;2022-08-19T06:26:35;32.10;;;24.88;;
15595;SDS011;7898;48.658;9.068;2022-08-19T06:29:05;33.88;;;26.58;;
15595;SDS011;7898;48.658;9.068;2022-08-19T06:31:33;32.40;;;26.55;;
15595;SDS011;7898;48.658;9.068;2022-08-19T06:34:01;34.67;;;27.00;;
15595;SDS011;7898;48.658;9.068;2022-08-19T06:36:30;33.97;;;26.55;;
15595;SDS011;7898;48.658;9.068;2022-08-19T06:38:59;32.80;;;25.92;;
15595;SDS011;7898;48.658;9.068;2022-08-19T06:41:29;32.67;;;26.73;;
15595;SDS011;7898;48.658;9.068;2022-08-19T06:43:57;29.30;;;24.30;;
15595;SDS011;7898;48.658;9.068;2022-08-19T06:46:24;32.75;;;26.02;;
15595;SDS011;7898;48.658;9.068;2022-08-19T06:48:51;30.67;;;25.88;;
15595;SDS011;7898;48.658;9.068;2022-08-19T06:51:19;33.15;;;25.30;;
15595;SDS011;7898;48.658;9.068;2022-08-19T06:53:47;30.98;;;25.80;;
15595;SDS011;7898;48.658;9.068;2022-08-19T06:56:16;31.70;;;25.42;;
15595;SDS011;7898;48.658;9.068;2022-08-19T06:58:47;30.23;;;25.05;;
15595;SDS011;7898;48.658;9.068;2022-08-19T07:01:18;32.00;;;24.65;;
15595;SDS011;7898;48.658;9.068;2022-08-19T07:03:45;36.35;;;26.10;;
15595;SDS011;7898;48.658;9.068;2022-08-19T07:06:14;34.10;;;25.30;;
15595;SDS011;7898;48.658;9.068;2022-08-19T07:08:45;29.98;;;24.98;;
15595;SDS011;7898;48.658;9.068;2022-08-19T07:11:14;28.42;;;24.33;;
15595;SDS011;7898;48.658;9.068;2022-08-19T07:13:42;28.73;;;23.85;;
15595;SDS011;7898;48.658;9.068;2022-08-19T07:16:12;31.25;;;23.67;;
15595;SDS011;7898;48.658;9.068;2022-08-19T07:18:42;30.45;;;23.35;;
15595;SDS011;7898;48.658;9.068;2022-08-19T07:21:10;31.73;;;24.70;;
15595;SDS011;7898;48.658;9.068;2022-08-19T07:23:41;28.02;;;22.42;;
15595;SDS011;7898;48.658;9.068;2022-08-19T07:26:08;28.95;;;23.38;;
15595;SDS011;7898;48.658;9.068;2022-08-19T07:28:37;26.85;;;23.20;;
15595;SDS011;7898;48.658;9.068;2022-08-19T07:31:05;29.83;;;24.05;;
15595;SDS011;7898;48.658;9.068;2022-08-19T07:33:33;29.67;;;23.73;;
15595;SDS011;7898;48.658;9.068;2022-08-19T07:36:02;27.17;;;21.98;;
15595;SDS011;7898;48.658;9.068;2022-08-19T07:38:30;29.85;;;22.90;;
15595;SDS011;7898;48.658;9.068;2022-08-19T07:40:59;30.83;;;23.08;;
15595;SDS011;7898;48.658;9.068;2022-08-19T07:43:26;28.20;;;22.35;;
15595;SDS011;7898;48.658;9.068;2022-08-19T07:45:54;26.33;;;22.27;;
15595;SDS011;7898;48.658;9.068;2022-08-19T07:48:22;27.10;;;22.17;;
15595;SDS011;7898;48.658;9.068;2022-08-19T07:50:51;28.02;;;22.35;;
15595;SDS011;7898;48.658;9.068;2022-08-19T07:53:19;27.95;;;22.58;;
15595;SDS011;7898;48.658;9.068;2022-08-19T07:55:46;26.38;;;22.05;;
15595;SDS011;7898;48.658;9.068;2022-08-19T07:58:14;29.50;;;22.48;;
15595;SDS011;7898;48.658;9.068;2022-08-19T08:00:43;25.58;;;20.45;;
15595;SDS011;7898;48.658;9.068;2022-08-19T08:03:12;29.63;;;21.42;;
15595;SDS011;7898;48.658;9.068;2022-08-19T08:05:40;27.23;;;21.13;;
15595;SDS011;7898;48.658;9.068;2022-08-19T08:08:26;27.75;;;20.13;;
15595;SDS011;7898;48.658;9.068;2022-08-19T08:11:11;27.08;;;20.00;;
15595;SDS011;7898;48.658;9.068;2022-08-19T08:13:39;26.92;;;20.10;;
15595;SDS011;7898;48.658;9.068;2022-08-19T08:16:06;23.63;;;20.83;;
15595;SDS011;7898;48.658;9.068;2022-08-19T08:18:33;25.63;;;20.88;;
15595;SDS011;7898;48.658;9.068;2022-08-19T08:21:06;23.05;;;20.30;;
15595;SDS011;7898;48.658;9.068;2022-08-19T08:23:35;26.35;;;20.80;;
15595;SDS011;7898;48.658;9.068;2022-08-19T08:26:02;25.92;;;21.15;;
15595;SDS011;7898;48.658;9.068;2022-08-19T08:28:29;25.88;;;21.00;;
15595;SDS011;7898;48.658;9.068;2022-08-19T08:30:57;26.98;;;20.17;;
15595;SDS011;7898;48.658;9.068;2022-08-19T08:33:25;26.02;;;21.15;;
15595;SDS011;7898;48.658;9.068;2022-08-19T08:35:53;24.38;;;20.27;;
15595;SDS011;7898;48.658;9.068;2022-08-19T08:38:20;25.35;;;21.23;;
15595;SDS011;7898;48.658;9.068;2022-08-19T08:40:49;26.98;;;22.63;;
15595;SDS011;7898;48.658;9.068;2022-08-19T08:43:24;27.33;;;21.75;;
15595;SDS011;7898;48.658;9.068;2022-08-19T08:45:56;27.08;;;22.52;;
15595;SDS011;7898;48.658;9.068;2022-08-19T08:48:30;26.92;;;20.90;;
15595;SDS011;7898;48.658;9.068;2022-08-19T08:51:04;27.00;;;22.35;;
15595;SDS011;7898;48.658;9.068;2022-08-19T08:53:35;31.35;;;22.08;;
15595;SDS011;7898;48.658;9.068;2022-08-19T08:56:06;32.08;;;23.10;;
15595;SDS011;7898;48.658;9.068;2022-08-19T08:58:40;28.35;;;23.63;;
15595;SDS011;7898;48.658;9.068;2022-08-19T09:01:12;30.40;;;23.27;;
15595;SDS011;7898;48.658;9.068;2022-08-19T09:03:40;28.45;;;23.00;;
15595;SDS011;7898;48.658;9.068;2022-08-19T09:06:11;29.48;;;22.35;;
15595;SDS011;7898;48.658;9.068;2022-08-19T09:08:45;27.15;;;23.42;;
15595;SDS011;7898;48.658;9.068;2022-08-19T09:11:19;29.88;;;23.90;;
15595;SDS011;7898;48.658;9.068;2022-08-19T09:14:00;28.55;;;23.27;;
15595;SDS011;7898;48.658;9.068;2022-08-19T09:16:35;28.92;;;22.80;;
15595;SDS011;7898;48.658;9.068;2022-08-19T09:19:06;25.23;;;22.02;;
15595;SDS011;7898;48.658;9.068;2022-08-19T09:21:35;27.02;;;23.08;;
15595;SDS011;7898;48.658;9.068;2022-08-19T09:24:04;29.05;;;22.27;;
15595;SDS011;7898;48.658;9.068;2022-08-19T09:26:33;26.55;;;22.33;;
15595;SDS011;7898;48.658;9.068;2022-08-19T09:29:00;26.70;;;21.83;;
15595;SDS011;7898;48.658;9.068;2022-08-19T09:31:30;28.70;;;23.38;;
15595;SDS011;7898;48.658;9.068;2022-08-19T09:33:58;26.20;;;22.10;;
15595;SDS011;7898;48.658;9.068;2022-08-19T09:36:29;28.60;;;22.73;;
15595;SDS011;7898;48.658;9.068;2022-08-19T09:38:58;24.15;;;20.60;;
15595;SDS011;7898;48.658;9.068;2022-08-19T09:41:26;25.23;;;21.73;;
15595;SDS011;7898;48.658;9.068;2022-08-19T09:43:55;27.85;;;21.15;;
15595;SDS011;7898;48.658;9.068;2022-08-19T09:46:23;27.20;;;21.75;;
15595;SDS011;7898;48.658;9.068;2022-08-19T09:48:52;24.73;;;21.05;;
15595;SDS011;7898;48.658;9.068;2022-08-19T09:51:22;24.80;;;20.50;;
15595;SDS011;7898;48.658;9.068;2022-08-19T09:53:51;24.02;;;20.92;;
15595;SDS011;7898;48.658;9.068;2022-08-19T09:56:20;23.85;;;21.27;;
15595;SDS011;7898;48.658;9.068;2022-08-19T09:58:48;24.65;;;21.38;;
15595;SDS011;7898;48.658;9.068;2022-08-19T10:01:17;25.73;;;21.25;;
15595;SDS011;7898;48.658;9.068;2022-08-19T10:03:47;25.23;;;21.75;;
15595;SDS011;7898;48.658;9.068;2022-08-19T10:06:16;23.77;;;20.08;;
15595;SDS011;7898;48.658;9.068;2022-08-19T10:08:43;25.42;;;21.08;;
15595;SDS011;7898;48.658;9.068;2022-08-19T10:11:10;26.02;;;21.30;;
15595;SDS011;7898;48.658;9.068;2022-08-19T10:13:40;28.10;;;21.05;;
15595;SDS011;7898;48.658;9.068;2022-08-19T10:16:09;23.80;;;20.45;;
15595;SDS011;7898;48.658;9.068;2022-08-19T10:18:39;24.38;;;20.42;;
15595;SDS011;7898;48.658;9.068;2022-08-19T10:21:10;24.70;;;20.75;;
15595;SDS011;7898;48.658;9.068;2022-08-19T10:23:39;27.58;;;20.52;;
15595;SDS011;7898;48.658;9.068;2022-08-19T10:26:10;23.90;;;20.27;;
15595;SDS011;7898;48.658;9.068;2022-08-19T10:28:39;24.33;;;19.92;;
15595;SDS011;7898;48.658;9.068;2022-08-19T10:31:07;23.33;;;20.02;;
15595;SDS011;7898;48.658;9.068;2022-08-19T10:33:36;25.33;;;20.23;;
15595;SDS011;7898;48.658;9.068;2022-08-19T10:36:07;24.42;;;19.25;;
15595;SDS011;7898;48.658;9.068;2022-08-19T10:38:35;24.52;;;19.25;;
15595;SDS011;7898;48.658;9.068;2022-08-19T10:41:07;21.65;;;19.33;;
15595;SDS011;7898;48.658;9.068;2022-08-19T10:43:35;21.77;;;19.17;;
15595;SDS011;7898;48.658;9.068;2022-08-19T10:46:05;19.13;;;17.10;;
15595;SDS011;7898;48.658;9.068;2022-08-19T10:48:32;20.10;;;17.80;;
15595;SDS011;7898;48.658;9.068;2022-08-19T10:51:00;21.52;;;18.02;;
15595;SDS011;7898;48.658;9.068;2022-08-19T10:53:46;20.02;;;17.85;;
15595;SDS011;7898;48.658;9.068;2022-08-19T10:56:13;18.42;;;16.40;;
15595;SDS011;7898;48.658;9.068;2022-08-19T10:58:57;23.27;;;18.20;;
15595;SDS011;7898;48.658;9.068;2022-08-19T11:01:25;19.08;;;16.77;;
15595;SDS011;7898;48.658;9.068;2022-08-19T11:03:52;17.35;;;15.52;;
15595;SDS011;7898;48.658;9.068;2022-08-19T11:06:19;20.23;;;17.25;;
15595;SDS011;7898;48.658;9.068;2022-08-19T11:08:47;17.05;;;15.20;;
15595;SDS011;7898;48.658;9.068;2022-08-19T11:11:14;17.98;;;14.63;;
15595;SDS011;7898;48.658;9.068;2022-08-19T11:13:41;16.98;;;14.70;;
15595;SDS011;7898;48.658;9.068;2022-08-19T11:16:11;16.25;;;13.20;;
15595;SDS011;7898;48.658;9.068;2022-08-19T11:18:41;14.45;;;12.95;;
15595;SDS011;7898;48.658;9.068;2022-08-19T11:21:10;15.07;;;13.18;;
15595;SDS011;7898;48.658;9.068;2022-08-19T11:23:38;14.98;;;13.40;;
15595;SDS011;7898;48.658;9.068;2022-08-19T11:26:07;18.10;;;13.48;;
15595;SDS011;7898;48.658;9.068;2022-08-19T11:28:34;17.10;;;13.43;;
15595;SDS011;7898;48.658;9.068;2022-08-19T11:31:01;15.05;;;13.50;;
15595;SDS011;7898;48.658;9.068;2022-08-19T11:33:29;14.52;;;13.02;;
15595;SDS011;7898;48.658;9.068;2022-08-19T11:35:57;15.68;;;13.60;;
15595;SDS011;7898;48.658;9.068;2022-08-19T11:38:25;15.50;;;13.70;;
15595;SDS011;7898;48.658;9.068;2022-08-19T11:40:56;15.70;;;13.70;;
15595;SDS011;7898;48.658;9.068;2022-08-19T11:43:25;16.23;;;13.45;;
15595;SDS011;7898;48.658;9.068;2022-08-19T11:45:52;16.02;;;13.48;;
15595;SDS011;7898;48.658;9.068;2022-08-19T11:48:20;15.05;;;13.45;;
15595;SDS011;7898;48.658;9.068;2022-08-19T11:50:48;15.80;;;14.18;;
15595;SDS011;7898;48.658;9.068;2022-08-19T11:53:15;15.13;;;13.30;;
15595;SDS011;7898;48.658;9.068;2022-08-19T11:55:43;15.75;;;12.63;;
15595;SDS011;7898;48.658;9.068;2022-08-19T11:58:10;15.05;;;12.73;;
15595;SDS011;7898;48.658;9.068;2022-08-19T12:00:39;14.15;;;12.65;;
15595;SDS011;7898;48.658;9.068;2022-08-19T12:03:06;16.25;;;13.02;;
15595;SDS011;7898;48.658;9.068;2022-08-19T12:05:36;18.65;;;12.73;;
15595;SDS011;7898;48.658;9.068;2022-08-19T12:08:03;14.10;;;12.07;;
15595;SDS011;7898;48.658;9.068;2022-08-19T12:10:30;14.10;;;12.55;;
15595;SDS011;7898;48.658;9.068;2022-08-19T12:12:58;12.93;;;11.70;;
15595;SDS011;7898;48.658;9.068;2022-08-19T12:15:25;13.10;;;11.48;;
15595;SDS011;7898;48.658;9.068;2022-08-19T12:17:56;15.30;;;12.10;;
15595;SDS011;7898;48.658;9.068;2022-08-19T12:20:24;13.75;;;11.02;;
15595;SDS011;7898;48.658;9.068;2022-08-19T12:22:51;12.98;;;10.95;;
15595;SDS011;7898;48.658;9.068;2022-08-19T12:25:18;12.43;;;10.27;;
15595;SDS011;7898;48.658;9.068;2022-08-19T12:27:46;11.63;;;10.15;;
15595;SDS011;7898;48.658;9.068;2022-08-19T12:30:14;10.95;;;9.65;;
15595;SDS011;7898;48.658;9.068;2022-08-19T12:32:41;11.13;;;9.93;;
15595;SDS011;7898;48.658;9.068;2022-08-19T12:35:10;12.50;;;10.57;;
15595;SDS011;7898;48.658;9.068;2022-08-19T12:37:37;10.50;;;9.50;;
15595;SDS011;7898;48.658;9.068;2022-08-19T12:40:09;11.63;;;10.05;;
15595;SDS011;7898;48.658;9.068;2022-08-19T12:42:37;10.65;;;9.60;;
15595;SDS011;7898;48.658;9.068;2022-08-19T12:45:07;11.73;;;9.45;;
15595;SDS011;7898;48.658;9.068;2022-08-19T12:47:35;10.38;;;9.38;;
15595;SDS011;7898;48.658;9.068;2022-08-19T12:50:02;10.63;;;9.52;;
15595;SDS011;7898;48.658;9.068;2022-08-19T12:52:35;11.55;;;9.80;;
15595;SDS011;7898;48.658;9.068;2022-08-19T12:55:03;15.48;;;13.32;;
15595;SDS011;7898;48.658;9.068;2022-08-19T12:57:31;20.98;;;18.67;;
15595;SDS011;7898;48.658;9.068;2022-08-19T13:00:01;22.73;;;20.33;;
15595;SDS011;7898;48.658;9.068;2022-08-19T13:02:33;23.52;;;21.02;;
15595;SDS011;7898;48.658;9.068;2022-08-19T13:05:01;24.70;;;21.83;;
15595;SDS011;7898;48.658;9.068;2022-08-19T13:07:28;24.20;;;21.60;;
15595;SDS011;7898;48.658;9.068;2022-08-19T13:09:57;25.17;;;22.48;;
15595;SDS011;7898;48.658;9.068;2022-08-19T13:12:23;29.13;;;23.25;;
15595;SDS011;7898;48.658;9.068;2022-08-19T13:14:51;28.30;;;23.75;;
15595;SDS011;7898;48.658;9.068;2022-08-19T13:17:18;27.17;;;23.77;;
15595;SDS011;7898;48.658;9.068;2022-08-19T13:19:46;29.45;;;23.75;;
15595;SDS011;7898;48.658;9.068;2022-08-19T13:22:13;28.42;;;24.80;;
15595;SDS011;7898;48.658;9.068;2022-08-19T13:24:40;28.38;;;24.98;;
15595;SDS011;7898;48.658;9.068;2022-08-19T13:27:09;33.28;;;25.90;;
15595;SDS011;7898;48.658;9.068;2022-08-19T13:29:36;30.08;;;24.42;;
15595;SDS011;7898;48.658;9.068;2022-08-19T13:32:21;31.77;;;25.85;;
15595;SDS011;7898;48.658;9.068;2022-08-19T13:35:05;28.63;;;25.52;;
15595;SDS011;7898;48.658;9.068;2022-08-19T13:37:32;33.00;;;26.13;;
15595;SDS011;7898;48.658;9.068;2022-08-19T13:40:09;31.77;;;26.58;;
15595;SDS011;7898;48.658;9.068;2022-08-19T13:42:41;32.67;;;27.38;;
15595;SDS011;7898;48.658;9.068;2022-08-19T13:45:11;34.25;;;27.30;;
15595;SDS011;7898;48.658;9.068;2022-08-19T13:47:40;32.97;;;28.73;;
15595;SDS011;7898;48.658;9.068;2022-08-19T13:50:08;32.92;;;27.30;;
15595;SDS011;7898;48.658;9.068;2022-08-19T13:52:35;33.20;;;27.48;;
15595;SDS011;7898;48.658;9.068;2022-08-19T13:55:03;33.55;;;27.77;;
15595;SDS011;7898;48.658;9.068;2022-08-19T13:57:31;34.13;;;28.58;;
15595;SDS011;7898;48.658;9.068;2022-08-19T13:59:59;35.10;;;28.45;;
15595;SDS011;7898;48.658;9.068;2022-08-19T14:02:26;33.67;;;27.33;;
15595;SDS011;7898;48.658;9.068;2022-08-19T14:04:53;34.50;;;28.42;;
15595;SDS011;7898;48.658;9.068;2022-08-19T14:07:20;30.98;;;26.58;;
15595;SDS011;7898;48.658;9.068;2022-08-19T14:09:49;29.88;;;25.88;;
15595;SDS011;7898;48.658;9.068;2022-08-19T14:12:18;32.25;;;27.75;;
15595;SDS011;7898;48.658;9.068;2022-08-19T14:14:45;34.72;;;29.08;;
15595;SDS011;7898;48.658;9.068;2022-08-19T14:17:14;33.40;;;26.35;;
15595;SDS011;7898;48.658;9.068;2022-08-19T14:19:41;34.60;;;29.25;;
15595;SDS011;7898;48.658;9.068;2022-08-19T14:22:09;33.13;;;28.40;;
15595;SDS011;7898;48.658;9.068;2022-08-19T14:24:36;34.55;;;28.38;;
15595;SDS011;7898;48.658;9.068;2022-08-19T14:27:05;39.88;;;27.73;;
15595;SDS011;7898;48.658;9.068;2022-08-19T14:29:32;30.00;;;26.45;;
15595;SDS011;7898;48.658;9.068;2022-08-19T14:31:59;29.65;;;26.45;;
15595;SDS011;7898;48.658;9.068;2022-08-19T14:34:27;27.65;;;24.63;;
15595;SDS011;7898;48.658;9.068;2022-08-19T14:36:56;29.92;;;25.75;;
15595;SDS011;7898;48.658;9.068;2022-08-19T14:39:23;28.10;;;25.13;;
15595;SDS011;7898;48.658;9.068;2022-08-19T14:41:50;27.52;;;24.33;;
15595;SDS011;7898;48.658;9.068;2022-08-19T14:44:17;29.67;;;25.00;;
15595;SDS011;7898;48.658;9.068;2022-08-19T14:46:44;31.88;;;25.60;;